sensor_id;sensor_type;location;lat;lon;timestamp;P1;durP1;ratioP1;P2;durP2;ratioP2
62151;SDS011;48139;47.474;19.034;2023-03-01T04:48:00;16.40;;;8.30;;
62151;SDS011;48139;47.474;19.034;2023-03-01T04:51:05;16.83;;;10.15;;
62151;SDS011;48139;47.474;19.034;2023-03-01T04:54:08;19.70;;;10.13;;
62151;SDS011;48139;47.474;19.034;2023-03-01T04:57:11;18.25;;;8.52;;
62151;SDS011;48139;47.474;19.034;2023-03-01T05:00:15;18.00;;;9.52;;
62151;SDS011;48139;47.474;19.034;2023-03-01T05:03:24;16.27;;;8.20;;
62151;SDS011;48139;47.474;19.034;2023-03-01T05:06:26;14.95;;;8.77;;
62151;SDS011;48139;47.474;19.034;2023-03-01T05:09:30;18.20;;;8.77;;
62151;SDS011;48139;47.474;19.034;2023-03-01T05:12:33;13.63;;;7.67;;
62151;SDS011;48139;47.474;19.034;2023-03-01T05:15:36;17.93;;;7.93;;
62151;SDS011;48139;47.474;19.034;2023-03-01T05:18:39;15.48;;;8.95;;
62151;SDS011;48139;47.474;19.034;2023-03-01T05:21:42;13.45;;;7.65;;
62151;SDS011;48139;47.474;19.034;2023-03-01T05:25:04;14.45;;;8.52;;
62151;SDS011;48139;47.474;19.034;2023-03-01T05:28:10;11.93;;;7.85;;
62151;SDS011;48139;47.474;19.034;2023-03-01T05:31:13;16.77;;;8.32;;
62151;SDS011;48139;47.474;19.034;2023-03-01T05:34:16;16.90;;;9.10;;
62151;SDS011;48139;47.474;19.034;2023-03-01T05:37:18;15.55;;;8.68;;
62151;SDS011;48139;47.474;19.034;2023-03-01T05:40:22;19.10;;;8.73;;
62151;SDS011;48139;47.474;19.034;2023-03-01T05:43:29;10.90;;;6.82;;
62151;SDS011;48139;47.474;19.034;2023-03-01T05:46:36;16.62;;;8.52;;
62151;SDS011;48139;47.474;19.034;2023-03-01T05:49:39;17.50;;;8.63;;
62151;SDS011;48139;47.474;19.034;2023-03-01T05:52:42;15.07;;;7.05;;
62151;SDS011;48139;47.474;19.034;2023-03-01T05:55:45;17.35;;;9.05;;
62151;SDS011;48139;47.474;19.034;2023-03-01T05:58:49;14.30;;;7.87;;
62151;SDS011;48139;47.474;19.034;2023-03-01T06:01:52;14.02;;;7.70;;
62151;SDS011;48139;47.474;19.034;2023-03-01T06:04:55;17.50;;;8.95;;
62151;SDS011;48139;47.474;19.034;2023-03-01T06:07:58;14.43;;;7.55;;
62151;SDS011;48139;47.474;19.034;2023-03-01T06:11:03;16.12;;;8.25;;
62151;SDS011;48139;47.474;19.034;2023-03-01T06:14:06;13.95;;;7.68;;
62151;SDS011;48139;47.474;19.034;2023-03-01T06:17:10;18.45;;;9.18;;
62151;SDS011;48139;47.474;19.034;2023-03-01T06:23:16;17.23;;;10.18;;
62151;SDS011;48139;47.474;19.034;2023-03-01T06:26:19;20.50;;;9.50;;
62151;SDS011;48139;47.474;19.034;2023-03-01T06:29:22;17.83;;;11.40;;
62151;SDS011;48139;47.474;19.034;2023-03-01T06:32:24;18.35;;;10.40;;
62151;SDS011;48139;47.474;19.034;2023-03-01T06:35:27;22.10;;;12.03;;
62151;SDS011;48139;47.474;19.034;2023-03-01T06:38:33;19.23;;;9.10;;
62151;SDS011;48139;47.474;19.034;2023-03-01T06:41:36;16.65;;;9.13;;
62151;SDS011;48139;47.474;19.034;2023-03-01T06:44:41;16.23;;;9.73;;
62151;SDS011;48139;47.474;19.034;2023-03-01T06:47:44;18.05;;;9.18;;
62151;SDS011;48139;47.474;19.034;2023-03-01T06:50:47;20.85;;;9.77;;
62151;SDS011;48139;47.474;19.034;2023-03-01T06:53:50;13.67;;;7.70;;
62151;SDS011;48139;47.474;19.034;2023-03-01T06:56:52;15.15;;;9.18;;
62151;SDS011;48139;47.474;19.034;2023-03-01T06:59:55;16.80;;;8.43;;
62151;SDS011;48139;47.474;19.034;2023-03-01T07:03:00;20.98;;;9.38;;
62151;SDS011;48139;47.474;19.034;2023-03-01T07:06:05;13.15;;;8.32;;
62151;SDS011;48139;47.474;19.034;2023-03-01T07:09:08;19.42;;;10.68;;
62151;SDS011;48139;47.474;19.034;2023-03-01T07:12:10;16.63;;;9.00;;
62151;SDS011;48139;47.474;19.034;2023-03-01T07:15:13;18.67;;;9.85;;
62151;SDS011;48139;47.474;19.034;2023-03-01T07:18:17;14.57;;;8.93;;
62151;SDS011;48139;47.474;19.034;2023-03-01T07:21:20;20.12;;;9.73;;
62151;SDS011;48139;47.474;19.034;2023-03-01T07:24:23;14.70;;;8.77;;
62151;SDS011;48139;47.474;19.034;2023-03-01T07:27:26;18.23;;;10.80;;
62151;SDS011;48139;47.474;19.034;2023-03-01T07:30:31;14.07;;;8.32;;
62151;SDS011;48139;47.474;19.034;2023-03-01T07:33:34;16.50;;;10.07;;
62151;SDS011;48139;47.474;19.034;2023-03-01T07:36:37;19.40;;;10.63;;
62151;SDS011;48139;47.474;19.034;2023-03-01T07:39:41;17.83;;;10.15;;
62151;SDS011;48139;47.474;19.034;2023-03-01T07:42:44;17.92;;;8.85;;
62151;SDS011;48139;47.474;19.034;2023-03-01T07:45:47;19.83;;;9.02;;
62151;SDS011;48139;47.474;19.034;2023-03-01T07:48:50;16.27;;;8.73;;
62151;SDS011;48139;47.474;19.034;2023-03-01T07:51:52;21.67;;;10.85;;
62151;SDS011;48139;47.474;19.034;2023-03-01T07:54:56;15.45;;;9.00;;
62151;SDS011;48139;47.474;19.034;2023-03-01T07:57:58;19.90;;;9.80;;
62151;SDS011;48139;47.474;19.034;2023-03-01T08:01:03;18.27;;;9.98;;
62151;SDS011;48139;47.474;19.034;2023-03-01T08:04:09;15.55;;;8.80;;
62151;SDS011;48139;47.474;19.034;2023-03-01T08:07:12;18.23;;;10.38;;
62151;SDS011;48139;47.474;19.034;2023-03-01T08:10:15;18.77;;;9.23;;
62151;SDS011;48139;47.474;19.034;2023-03-01T08:13:18;17.77;;;10.50;;
62151;SDS011;48139;47.474;19.034;2023-03-01T08:16:24;18.87;;;9.13;;
62151;SDS011;48139;47.474;19.034;2023-03-01T08:19:27;16.77;;;8.47;;
62151;SDS011;48139;47.474;19.034;2023-03-01T08:22:30;19.37;;;9.88;;
62151;SDS011;48139;47.474;19.034;2023-03-01T08:25:32;16.05;;;9.90;;
62151;SDS011;48139;47.474;19.034;2023-03-01T08:28:35;15.60;;;9.63;;
62151;SDS011;48139;47.474;19.034;2023-03-01T08:31:39;16.07;;;9.87;;
62151;SDS011;48139;47.474;19.034;2023-03-01T08:34:45;20.83;;;11.27;;
62151;SDS011;48139;47.474;19.034;2023-03-01T08:37:48;16.05;;;8.70;;
62151;SDS011;48139;47.474;19.034;2023-03-01T08:40:53;17.77;;;9.15;;
62151;SDS011;48139;47.474;19.034;2023-03-01T08:43:56;18.05;;;8.85;;
62151;SDS011;48139;47.474;19.034;2023-03-01T08:47:01;15.25;;;9.35;;
62151;SDS011;48139;47.474;19.034;2023-03-01T08:50:04;17.50;;;9.07;;
62151;SDS011;48139;47.474;19.034;2023-03-01T08:53:09;16.27;;;9.02;;
62151;SDS011;48139;47.474;19.034;2023-03-01T08:56:13;15.95;;;8.75;;
62151;SDS011;48139;47.474;19.034;2023-03-01T08:59:16;19.85;;;10.13;;
62151;SDS011;48139;47.474;19.034;2023-03-01T09:02:20;19.40;;;11.90;;
62151;SDS011;48139;47.474;19.034;2023-03-01T09:05:23;16.75;;;8.65;;
62151;SDS011;48139;47.474;19.034;2023-03-01T09:08:25;15.98;;;9.10;;
62151;SDS011;48139;47.474;19.034;2023-03-01T09:11:28;18.17;;;8.20;;
62151;SDS011;48139;47.474;19.034;2023-03-01T09:14:31;28.73;;;9.63;;
62151;SDS011;48139;47.474;19.034;2023-03-01T09:17:34;18.20;;;10.45;;
62151;SDS011;48139;47.474;19.034;2023-03-01T09:20:37;15.00;;;9.02;;
62151;SDS011;48139;47.474;19.034;2023-03-01T09:23:42;18.02;;;9.13;;
62151;SDS011;48139;47.474;19.034;2023-03-01T09:26:46;19.25;;;9.13;;
62151;SDS011;48139;47.474;19.034;2023-03-01T09:29:52;17.75;;;10.70;;
62151;SDS011;48139;47.474;19.034;2023-03-01T09:32:58;20.50;;;10.35;;
62151;SDS011;48139;47.474;19.034;2023-03-01T09:36:02;19.48;;;10.00;;
62151;SDS011;48139;47.474;19.034;2023-03-01T09:39:07;19.67;;;10.50;;
62151;SDS011;48139;47.474;19.034;2023-03-01T09:42:10;19.10;;;9.38;;
62151;SDS011;48139;47.474;19.034;2023-03-01T09:45:25;18.80;;;10.52;;
62151;SDS011;48139;47.474;19.034;2023-03-01T09:48:33;16.17;;;9.13;;
62151;SDS011;48139;47.474;19.034;2023-03-01T09:51:45;17.25;;;10.52;;
62151;SDS011;48139;47.474;19.034;2023-03-01T09:54:57;15.63;;;9.13;;
62151;SDS011;48139;47.474;19.034;2023-03-01T10:08:38;16.77;;;9.98;;
62151;SDS011;48139;47.474;19.034;2023-03-01T10:11:46;20.60;;;10.13;;
62151;SDS011;48139;47.474;19.034;2023-03-01T10:18:17;17.02;;;9.15;;
62151;SDS011;48139;47.474;19.034;2023-03-01T10:21:23;27.30;;;11.70;;
62151;SDS011;48139;47.474;19.034;2023-03-01T10:24:26;21.07;;;11.07;;
62151;SDS011;48139;47.474;19.034;2023-03-01T10:27:39;17.05;;;9.20;;
62151;SDS011;48139;47.474;19.034;2023-03-01T10:30:49;18.05;;;9.73;;
62151;SDS011;48139;47.474;19.034;2023-03-01T10:33:53;21.70;;;9.75;;
62151;SDS011;48139;47.474;19.034;2023-03-01T10:37:08;17.05;;;10.10;;
62151;SDS011;48139;47.474;19.034;2023-03-01T10:40:14;21.20;;;9.75;;
62151;SDS011;48139;47.474;19.034;2023-03-01T10:46:33;17.87;;;11.07;;
62151;SDS011;48139;47.474;19.034;2023-03-01T10:49:38;22.50;;;9.98;;
62151;SDS011;48139;47.474;19.034;2023-03-01T10:52:41;19.23;;;9.48;;
62151;SDS011;48139;47.474;19.034;2023-03-01T10:55:44;15.88;;;8.60;;
62151;SDS011;48139;47.474;19.034;2023-03-01T10:59:03;22.05;;;11.23;;
62151;SDS011;48139;47.474;19.034;2023-03-01T11:02:30;20.48;;;10.63;;
62151;SDS011;48139;47.474;19.034;2023-03-01T11:05:50;14.15;;;9.30;;
62151;SDS011;48139;47.474;19.034;2023-03-01T11:08:54;18.00;;;8.80;;
62151;SDS011;48139;47.474;19.034;2023-03-01T11:11:59;17.42;;;9.10;;
62151;SDS011;48139;47.474;19.034;2023-03-01T11:15:03;16.58;;;8.57;;
62151;SDS011;48139;47.474;19.034;2023-03-01T11:18:17;11.35;;;7.00;;
62151;SDS011;48139;47.474;19.034;2023-03-01T11:21:26;20.55;;;9.23;;
62151;SDS011;48139;47.474;19.034;2023-03-01T11:27:40;15.77;;;7.93;;
62151;SDS011;48139;47.474;19.034;2023-03-01T11:30:51;17.52;;;9.35;;
62151;SDS011;48139;47.474;19.034;2023-03-01T11:34:19;15.63;;;8.38;;
62151;SDS011;48139;47.474;19.034;2023-03-01T11:37:46;17.27;;;7.07;;
62151;SDS011;48139;47.474;19.034;2023-03-01T11:40:57;14.63;;;6.65;;
62151;SDS011;48139;47.474;19.034;2023-03-01T11:44:12;16.37;;;7.57;;
62151;SDS011;48139;47.474;19.034;2023-03-01T11:50:46;13.98;;;6.93;;
62151;SDS011;48139;47.474;19.034;2023-03-01T11:53:53;16.08;;;6.45;;
62151;SDS011;48139;47.474;19.034;2023-03-01T12:07:36;19.90;;;8.30;;
62151;SDS011;48139;47.474;19.034;2023-03-01T12:10:56;13.40;;;7.12;;
62151;SDS011;48139;47.474;19.034;2023-03-01T12:14:10;12.13;;;7.20;;
62151;SDS011;48139;47.474;19.034;2023-03-01T12:17:32;12.37;;;8.05;;
62151;SDS011;48139;47.474;19.034;2023-03-01T12:24:46;14.77;;;7.85;;
62151;SDS011;48139;47.474;19.034;2023-03-01T12:41:29;14.10;;;7.60;;
62151;SDS011;48139;47.474;19.034;2023-03-01T12:51:38;16.05;;;8.57;;
62151;SDS011;48139;47.474;19.034;2023-03-01T12:54:43;14.50;;;7.53;;
62151;SDS011;48139;47.474;19.034;2023-03-01T13:04:57;15.45;;;6.75;;
62151;SDS011;48139;47.474;19.034;2023-03-01T13:11:21;15.85;;;7.72;;
62151;SDS011;48139;47.474;19.034;2023-03-01T13:17:32;11.83;;;7.00;;
62151;SDS011;48139;47.474;19.034;2023-03-01T13:23:47;13.48;;;6.57;;
62151;SDS011;48139;47.474;19.034;2023-03-01T13:33:40;15.32;;;8.15;;
62151;SDS011;48139;47.474;19.034;2023-03-01T13:36:53;13.93;;;6.65;;
62151;SDS011;48139;47.474;19.034;2023-03-01T13:43:28;11.67;;;6.30;;
62151;SDS011;48139;47.474;19.034;2023-03-01T13:46:33;12.05;;;6.70;;
62151;SDS011;48139;47.474;19.034;2023-03-01T13:49:45;14.13;;;7.25;;
62151;SDS011;48139;47.474;19.034;2023-03-01T13:52:53;11.60;;;6.60;;
62151;SDS011;48139;47.474;19.034;2023-03-01T13:56:02;20.02;;;6.55;;
62151;SDS011;48139;47.474;19.034;2023-03-01T13:59:14;12.73;;;5.97;;
62151;SDS011;48139;47.474;19.034;2023-03-01T14:02:18;10.52;;;5.40;;
62151;SDS011;48139;47.474;19.034;2023-03-01T14:05:21;10.63;;;4.80;;
62151;SDS011;48139;47.474;19.034;2023-03-01T14:08:24;12.52;;;5.47;;
62151;SDS011;48139;47.474;19.034;2023-03-01T14:18:04;9.23;;;4.12;;
62151;SDS011;48139;47.474;19.034;2023-03-01T14:21:29;11.98;;;4.93;;
62151;SDS011;48139;47.474;19.034;2023-03-01T14:24:32;10.30;;;5.57;;
62151;SDS011;48139;47.474;19.034;2023-03-01T14:27:39;8.68;;;5.05;;
62151;SDS011;48139;47.474;19.034;2023-03-01T14:30:48;9.50;;;4.18;;
62151;SDS011;48139;47.474;19.034;2023-03-01T14:33:56;10.38;;;5.90;;
62151;SDS011;48139;47.474;19.034;2023-03-01T14:37:09;11.00;;;4.57;;
62151;SDS011;48139;47.474;19.034;2023-03-01T14:40:32;7.55;;;4.10;;
62151;SDS011;48139;47.474;19.034;2023-03-01T14:43:39;8.20;;;4.80;;
62151;SDS011;48139;47.474;19.034;2023-03-01T14:46:46;7.37;;;4.22;;
62151;SDS011;48139;47.474;19.034;2023-03-01T14:49:50;7.93;;;3.50;;
62151;SDS011;48139;47.474;19.034;2023-03-01T14:53:05;9.35;;;3.53;;
62151;SDS011;48139;47.474;19.034;2023-03-01T14:56:14;12.52;;;5.00;;
62151;SDS011;48139;47.474;19.034;2023-03-01T14:59:22;9.60;;;4.75;;
62151;SDS011;48139;47.474;19.034;2023-03-01T15:02:26;10.80;;;4.25;;
62151;SDS011;48139;47.474;19.034;2023-03-01T15:05:32;9.10;;;4.20;;
62151;SDS011;48139;47.474;19.034;2023-03-01T15:08:35;11.40;;;4.32;;
62151;SDS011;48139;47.474;19.034;2023-03-01T15:11:43;10.68;;;4.55;;
62151;SDS011;48139;47.474;19.034;2023-03-01T15:14:46;8.25;;;4.45;;
62151;SDS011;48139;47.474;19.034;2023-03-01T15:18:06;13.52;;;3.85;;
62151;SDS011;48139;47.474;19.034;2023-03-01T15:21:19;9.18;;;4.62;;
62151;SDS011;48139;47.474;19.034;2023-03-01T15:24:25;12.02;;;5.12;;
62151;SDS011;48139;47.474;19.034;2023-03-01T15:27:29;8.75;;;4.28;;
62151;SDS011;48139;47.474;19.034;2023-03-01T15:30:33;9.35;;;3.97;;
62151;SDS011;48139;47.474;19.034;2023-03-01T15:33:40;9.50;;;3.75;;
62151;SDS011;48139;47.474;19.034;2023-03-01T15:36:49;10.70;;;4.32;;
62151;SDS011;48139;47.474;19.034;2023-03-01T15:39:55;12.15;;;4.95;;
62151;SDS011;48139;47.474;19.034;2023-03-01T15:42:59;8.60;;;4.93;;
62151;SDS011;48139;47.474;19.034;2023-03-01T15:46:03;9.13;;;4.07;;
62151;SDS011;48139;47.474;19.034;2023-03-01T15:49:23;7.50;;;3.40;;
62151;SDS011;48139;47.474;19.034;2023-03-01T15:52:54;9.77;;;4.55;;
62151;SDS011;48139;47.474;19.034;2023-03-01T15:55:59;11.40;;;4.62;;
62151;SDS011;48139;47.474;19.034;2023-03-01T15:59:02;10.43;;;4.17;;
62151;SDS011;48139;47.474;19.034;2023-03-01T16:02:10;9.90;;;4.93;;
62151;SDS011;48139;47.474;19.034;2023-03-01T16:05:23;13.07;;;4.85;;
62151;SDS011;48139;47.474;19.034;2023-03-01T16:08:28;12.50;;;4.75;;
62151;SDS011;48139;47.474;19.034;2023-03-01T16:14:34;8.68;;;4.22;;
62151;SDS011;48139;47.474;19.034;2023-03-01T16:17:37;8.80;;;4.17;;
62151;SDS011;48139;47.474;19.034;2023-03-01T16:20:40;6.70;;;3.47;;
62151;SDS011;48139;47.474;19.034;2023-03-01T16:23:43;7.62;;;4.32;;
62151;SDS011;48139;47.474;19.034;2023-03-01T16:26:46;16.10;;;4.82;;
62151;SDS011;48139;47.474;19.034;2023-03-01T16:29:49;10.82;;;4.93;;
62151;SDS011;48139;47.474;19.034;2023-03-01T16:32:51;11.63;;;4.17;;
62151;SDS011;48139;47.474;19.034;2023-03-01T16:35:54;12.13;;;5.32;;
62151;SDS011;48139;47.474;19.034;2023-03-01T16:38:57;10.30;;;4.37;;
62151;SDS011;48139;47.474;19.034;2023-03-01T16:42:01;9.30;;;4.68;;
62151;SDS011;48139;47.474;19.034;2023-03-01T16:45:03;14.15;;;5.50;;
62151;SDS011;48139;47.474;19.034;2023-03-01T16:48:15;9.35;;;4.00;;
